createdAt,value
2017-08-24T01:43:45.032Z,859.87
2017-08-24T01:44:44.827Z,859.88
2017-08-24T01:45:44.718Z,859.83
2017-08-24T01:46:44.710Z,859.85
2017-08-24T01:47:44.702Z,859.84
2017-08-24T01:48:44.703Z,859.88
2017-08-24T01:49:44.689Z,859.89
2017-08-24T01:50:44.982Z,859.85
2017-08-24T01:51:44.677Z,859.83
2017-08-24T01:52:44.669Z,859.84
2017-08-24T01:53:44.663Z,859.84
2017-08-24T01:54:44.654Z,859.83
2017-08-24T01:55:44.651Z,859.84
2017-08-24T01:56:44.741Z,859.84
2017-08-24T01:57:44.633Z,859.88
2017-08-24T01:58:44.628Z,859.89
2017-08-24T01:59:44.621Z,859.88
2017-08-24T02:00:44.614Z,859.87
2017-08-24T02:01:44.606Z,859.86
2017-08-24T02:02:44.703Z,859.89
2017-08-24T02:03:44.593Z,859.84
2017-08-24T02:04:44.589Z,859.84
2017-08-24T02:05:44.599Z,859.85
2017-08-24T02:06:44.574Z,859.89
2017-08-24T02:07:44.568Z,859.88
2017-08-24T02:08:44.662Z,859.86
2017-08-24T02:09:44.564Z,859.89
2017-08-24T02:10:44.546Z,859.87
2017-08-24T02:11:44.539Z,859.86
2017-08-24T02:12:44.532Z,859.88
2017-08-24T02:13:44.528Z,859.86
2017-08-24T02:14:44.769Z,859.87
2017-08-24T02:15:44.511Z,859.88
2017-08-24T02:16:44.507Z,859.87
2017-08-24T02:17:44.498Z,859.84
2017-08-24T02:18:44.493Z,859.84
2017-08-24T02:19:44.484Z,859.82
2017-08-24T02:20:44.580Z,859.83
2017-08-24T02:21:44.472Z,859.85
2017-08-24T02:22:44.466Z,859.83
2017-08-24T02:23:44.459Z,859.82
2017-08-24T02:24:44.449Z,859.79
2017-08-24T02:25:44.444Z,859.79
2017-08-24T02:26:44.538Z,859.80
2017-08-24T02:27:44.428Z,859.78
2017-08-24T02:28:44.424Z,859.77
2017-08-24T02:29:44.414Z,859.77
2017-08-24T02:30:44.413Z,859.76
2017-08-24T02:31:44.401Z,859.73
2017-08-24T02:32:44.495Z,859.73
2017-08-24T02:33:44.388Z,859.71
2017-08-24T02:34:44.479Z,859.72
2017-08-24T02:35:44.375Z,859.71
2017-08-24T02:36:44.367Z,859.71
2017-08-24T02:37:44.360Z,859.70
2017-08-24T02:38:44.354Z,859.70
2017-08-24T02:39:44.446Z,859.68
2017-08-24T02:40:44.340Z,859.68
2017-08-24T02:41:44.332Z,859.70
2017-08-24T02:42:44.422Z,859.70
2017-08-24T02:43:44.319Z,859.67
2017-08-24T02:44:44.309Z,859.70
2017-08-24T02:45:44.302Z,859.66
2017-08-24T02:46:44.397Z,859.68
2017-08-24T02:47:44.287Z,859.69
2017-08-24T02:48:44.385Z,859.68
2017-08-24T02:49:44.276Z,859.65
2017-08-24T02:50:44.266Z,859.67
2017-08-24T02:51:44.260Z,859.65
2017-08-24T02:52:44.262Z,859.62
2017-08-24T02:53:44.248Z,859.67
2017-08-24T02:54:44.492Z,859.64
2017-08-24T02:55:44.334Z,859.65
2017-08-24T02:56:44.226Z,859.64
2017-08-24T02:57:44.220Z,859.67
2017-08-24T02:58:44.213Z,859.64
2017-08-24T02:59:44.205Z,859.63
2017-08-24T03:00:44.299Z,859.66
2017-08-24T03:01:44.194Z,859.67
2017-08-24T03:02:44.184Z,859.63
2017-08-24T03:03:44.177Z,859.62
2017-08-24T03:04:44.168Z,859.63
2017-08-24T03:05:44.161Z,859.61
2017-08-24T03:06:44.255Z,859.61
2017-08-24T03:07:44.149Z,859.61
2017-08-24T03:08:44.242Z,859.58
2017-08-24T03:09:44.133Z,859.62
2017-08-24T03:10:44.128Z,859.59
2017-08-24T03:11:44.121Z,859.58
2017-08-24T03:12:44.215Z,859.59
2017-08-24T03:13:44.107Z,859.59
2017-08-24T03:14:44.103Z,859.57
2017-08-24T03:15:44.090Z,859.57
2017-08-24T03:16:44.084Z,859.56
2017-08-24T03:17:44.081Z,859.59
2017-08-24T03:18:44.170Z,859.63
2017-08-24T03:19:44.062Z,859.60
2017-08-24T03:20:44.057Z,859.62
2017-08-24T03:21:44.046Z,859.61
2017-08-24T03:22:44.042Z,859.62
2017-08-24T03:23:44.032Z,859.62
2017-08-24T03:24:44.276Z,859.62
2017-08-24T03:25:44.020Z,859.63
2017-08-24T03:26:44.013Z,859.67
2017-08-24T03:27:44.004Z,859.66
2017-08-24T03:28:43.999Z,859.68
2017-08-24T03:29:43.989Z,859.69
2017-08-24T03:30:44.233Z,859.70
2017-08-24T03:31:43.974Z,859.72
2017-08-24T03:32:43.969Z,859.71
2017-08-24T03:33:43.961Z,859.72
2017-08-24T03:34:43.955Z,859.73
2017-08-24T03:35:43.948Z,859.71
2017-08-24T03:36:44.040Z,859.73
2017-08-24T03:37:43.931Z,859.76
2017-08-24T03:38:43.925Z,859.75
2017-08-24T03:39:43.918Z,859.79
2017-08-24T03:40:43.911Z,859.76
2017-08-24T03:41:43.905Z,859.76
2017-08-24T03:42:44.198Z,859.75
2017-08-24T03:43:43.889Z,859.75
2017-08-24T03:44:43.883Z,859.76
2017-08-24T03:45:43.875Z,859.74
2017-08-24T03:46:43.868Z,859.73
2017-08-24T03:47:43.938Z,859.75
2017-08-24T03:48:44.132Z,859.73
2017-08-24T03:49:43.847Z,859.72
2017-08-24T03:50:43.840Z,859.74
2017-08-24T03:51:43.831Z,859.70
2017-08-24T03:52:43.825Z,859.72
2017-08-24T03:53:43.818Z,859.71
2017-08-24T03:54:43.912Z,859.72
2017-08-24T03:55:43.804Z,859.70
2017-08-24T03:56:44.007Z,859.72
2017-08-24T03:57:43.788Z,859.73
2017-08-24T03:58:43.784Z,859.71
2017-08-24T03:59:43.776Z,859.77
2017-08-24T04:00:43.769Z,859.73
2017-08-24T04:01:43.860Z,859.73
2017-08-24T04:02:43.751Z,859.77
2017-08-24T04:03:43.745Z,859.75
2017-08-24T04:04:43.737Z,859.76
2017-08-24T04:05:43.730Z,859.76
2017-08-24T04:06:43.722Z,859.76
2017-08-24T04:07:43.816Z,859.76
2017-08-24T04:08:43.711Z,859.75
2017-08-24T04:09:43.702Z,859.79
2017-08-24T04:10:43.694Z,859.81
2017-08-24T04:11:43.686Z,859.78
2017-08-24T04:12:43.682Z,859.74
2017-08-24T04:13:43.771Z,859.75
2017-08-24T04:14:43.666Z,859.78
2017-08-24T04:15:43.757Z,859.74
2017-08-24T04:16:43.652Z,859.73
2017-08-24T04:17:43.642Z,859.77
2017-08-24T04:18:43.637Z,859.77
2017-08-24T04:19:43.730Z,859.74
2017-08-24T04:20:43.624Z,859.71
2017-08-24T04:21:43.614Z,859.71
2017-08-24T04:22:43.708Z,859.72
2017-08-24T04:23:43.602Z,859.72
2017-08-24T04:24:43.597Z,859.73
2017-08-24T04:25:43.683Z,859.77
2017-08-24T04:26:43.622Z,859.76
2017-08-24T04:27:43.570Z,859.76
2017-08-24T04:28:43.562Z,859.75
2017-08-24T04:29:43.552Z,859.75
2017-08-24T04:30:43.545Z,859.76
2017-08-24T04:31:43.638Z,859.73
2017-08-24T04:32:43.540Z,859.76
2017-08-24T04:33:43.522Z,859.78
2017-08-24T04:34:43.578Z,859.74
2017-08-24T04:35:43.508Z,859.74
2017-08-24T04:36:43.500Z,859.79
2017-08-24T04:37:43.593Z,859.76
2017-08-24T04:38:43.486Z,859.74
2017-08-24T04:39:43.580Z,859.78
2017-08-24T04:40:43.471Z,859.78
2017-08-24T04:41:43.537Z,859.78
2017-08-24T04:42:43.457Z,859.81
2017-08-24T04:43:43.449Z,859.83
2017-08-24T04:44:43.693Z,859.85
2017-08-24T04:45:43.433Z,859.84
2017-08-24T04:46:43.426Z,859.86
2017-08-24T04:47:43.419Z,859.84
2017-08-24T04:48:43.411Z,859.83
2017-08-24T04:49:43.403Z,859.83
2017-08-24T04:50:43.697Z,859.84
2017-08-24T04:51:43.390Z,859.83
2017-08-24T04:52:43.380Z,859.88
2017-08-24T04:53:43.372Z,859.88
2017-08-24T04:54:43.368Z,859.89
2017-08-24T04:55:43.357Z,859.89
2017-08-24T04:56:43.600Z,859.91
2017-08-24T04:57:43.344Z,859.90
2017-08-24T04:58:43.335Z,859.96
2017-08-24T04:59:43.411Z,859.93
2017-08-24T05:00:43.322Z,859.96
2017-08-24T05:01:43.313Z,859.96
2017-08-24T05:02:43.404Z,859.96
2017-08-24T05:03:43.299Z,859.96
2017-08-24T05:04:43.295Z,859.95
2017-08-24T05:05:43.284Z,859.99
2017-08-24T05:06:43.377Z,859.99
2017-08-24T05:07:43.269Z,859.98
2017-08-24T05:08:43.362Z,859.97
2017-08-24T05:09:43.255Z,860.03
2017-08-24T05:10:43.247Z,860.02
2017-08-24T05:11:43.239Z,860.03
2017-08-24T05:12:43.230Z,860.04
2017-08-24T05:13:43.228Z,860.03
2017-08-24T05:14:43.317Z,860.02
2017-08-24T05:15:43.210Z,860.02
2017-08-24T05:16:43.200Z,859.97
2017-08-24T05:17:43.193Z,860.00
2017-08-24T05:18:43.185Z,859.97
2017-08-24T05:19:43.178Z,859.96
2017-08-24T05:20:43.271Z,860.00
2017-08-24T05:21:43.163Z,860.00
2017-08-24T05:22:43.159Z,860.04
2017-08-24T05:23:43.149Z,860.04
2017-08-24T05:24:43.141Z,860.07
2017-08-24T05:25:43.134Z,860.06
2017-08-24T05:26:43.227Z,860.09
2017-08-24T05:27:43.119Z,860.14
2017-08-24T05:28:43.114Z,860.09
2017-08-24T05:29:43.105Z,860.12
2017-08-24T05:30:43.099Z,860.13
2017-08-24T05:31:43.098Z,860.15
2017-08-24T05:32:43.184Z,860.17
2017-08-24T05:33:43.080Z,860.20
2017-08-24T05:34:43.070Z,860.17
2017-08-24T05:35:43.062Z,860.21
2017-08-24T05:36:43.054Z,860.17
2017-08-24T05:37:43.048Z,860.22
2017-08-24T05:38:43.141Z,860.22
2017-08-24T05:39:43.033Z,860.25
2017-08-24T05:40:43.029Z,860.25
2017-08-24T05:41:43.020Z,860.26
2017-08-24T05:42:43.014Z,860.25
2017-08-24T05:43:43.008Z,860.27
2017-08-24T05:44:43.101Z,860.27
2017-08-24T05:45:42.993Z,860.31
2017-08-24T05:46:42.986Z,860.30
2017-08-24T05:47:42.980Z,860.27
2017-08-24T05:48:42.997Z,860.30
2017-08-24T05:49:42.966Z,860.30
2017-08-24T05:50:43.061Z,860.28
2017-08-24T05:51:42.955Z,860.28
2017-08-24T05:52:42.956Z,860.30
2017-08-24T05:53:42.941Z,860.29
2017-08-24T05:54:42.934Z,860.29
2017-08-24T05:55:42.936Z,860.29
2017-08-24T05:56:43.024Z,860.33
2017-08-24T05:57:42.919Z,860.28
2017-08-24T05:58:42.911Z,860.31
2017-08-24T05:59:42.905Z,860.30
2017-08-24T06:00:42.927Z,860.28
2017-08-24T06:01:42.896Z,860.28
2017-08-24T06:02:42.988Z,860.32
2017-08-24T06:03:42.882Z,860.34
2017-08-24T06:04:42.878Z,860.33
2017-08-24T06:05:42.874Z,860.37
2017-08-24T06:06:42.866Z,860.32
2017-08-24T06:07:42.863Z,860.35
2017-08-24T06:08:42.956Z,860.41
2017-08-24T06:09:42.851Z,860.42
2017-08-24T06:10:42.846Z,860.42
2017-08-24T06:11:42.844Z,860.41
2017-08-24T06:12:42.835Z,860.42
2017-08-24T06:13:42.830Z,860.44
2017-08-24T06:14:42.925Z,860.44
2017-08-24T06:15:42.823Z,860.43
2017-08-24T06:16:42.816Z,860.44
2017-08-24T06:17:42.836Z,860.49
2017-08-24T06:18:42.809Z,860.47
2017-08-24T06:19:42.804Z,860.42
2017-08-24T06:20:42.899Z,860.41
2017-08-24T06:21:42.797Z,860.41
2017-08-24T06:22:42.793Z,860.39
2017-08-24T06:23:42.785Z,860.45
2017-08-24T06:24:42.781Z,860.45
2017-08-24T06:25:42.776Z,860.43
2017-08-24T06:26:42.873Z,860.46
2017-08-24T06:27:42.766Z,860.48
2017-08-24T06:28:42.763Z,860.47
2017-08-24T06:29:42.858Z,860.47
2017-08-24T06:30:42.754Z,860.51
2017-08-24T06:31:42.752Z,860.52
2017-08-24T06:32:42.845Z,860.51
2017-08-24T06:33:42.740Z,860.55
2017-08-24T06:34:42.736Z,860.50
2017-08-24T06:35:42.734Z,860.49
2017-08-24T06:36:42.733Z,860.53
2017-08-24T06:37:42.727Z,860.52
2017-08-24T06:38:42.823Z,860.51
2017-08-24T06:39:42.719Z,860.50
2017-08-24T06:40:42.716Z,860.53
2017-08-24T06:41:42.714Z,860.54
2017-08-24T06:42:42.712Z,860.51
2017-08-24T06:43:42.707Z,860.56
2017-08-24T06:44:42.806Z,860.55
2017-08-24T06:45:42.804Z,860.60
2017-08-24T06:46:42.703Z,860.63
2017-08-24T06:47:42.703Z,860.69
2017-08-24T06:48:42.704Z,860.77
2017-08-24T06:49:42.703Z,860.86
2017-08-24T06:50:42.804Z,860.83
2017-08-24T06:51:42.707Z,860.94
2017-08-24T06:52:42.710Z,860.98
2017-08-24T06:53:42.712Z,861.13
2017-08-24T06:54:42.717Z,861.22
2017-08-24T06:55:42.718Z,861.25
2017-08-24T06:56:42.826Z,861.28
2017-08-24T06:57:42.730Z,861.35
2017-08-24T06:58:42.734Z,861.48
2017-08-24T06:59:42.744Z,861.49
2017-08-24T07:00:42.749Z,861.71
2017-08-24T07:01:42.755Z,861.98
2017-08-24T07:02:42.863Z,862.13
2017-08-24T07:03:42.773Z,862.48
2017-08-24T07:04:42.782Z,862.95
2017-08-24T07:05:42.791Z,863.23
2017-08-24T07:06:42.799Z,863.36
2017-08-24T07:07:42.810Z,863.32
2017-08-24T07:08:42.920Z,863.61
2017-08-24T07:09:42.829Z,863.68
2017-08-24T07:10:42.842Z,863.54
2017-08-24T07:11:42.855Z,863.56
2017-08-24T07:12:42.865Z,863.69
2017-08-24T07:13:42.875Z,863.60
2017-08-24T07:14:42.988Z,863.65
2017-08-24T07:15:43.001Z,863.82
2017-08-24T07:16:42.914Z,863.74
2017-08-24T07:17:42.926Z,863.89
2017-08-24T07:18:42.937Z,863.65
2017-08-24T07:19:42.953Z,863.85
2017-08-24T07:20:43.065Z,863.90
2017-08-24T07:21:42.976Z,863.77
2017-08-24T07:22:42.991Z,863.81
2017-08-24T07:23:43.003Z,863.85
2017-08-24T07:24:43.017Z,863.68
2017-08-24T07:25:43.027Z,863.57
2017-08-24T07:26:43.145Z,863.50
2017-08-24T07:27:43.054Z,863.42
2017-08-24T07:28:43.064Z,863.16
2017-08-24T07:29:43.076Z,862.63
2017-08-24T07:30:43.188Z,861.97
2017-08-24T07:31:43.098Z,861.27
2017-08-24T07:32:43.212Z,860.75
2017-08-24T07:33:43.120Z,860.63
2017-08-24T07:34:43.130Z,860.64
2017-08-24T07:35:43.141Z,860.63
2017-08-24T07:36:43.151Z,860.63
2017-08-24T07:37:43.161Z,860.62
2017-08-24T07:38:43.269Z,860.66
2017-08-24T07:39:43.177Z,860.61
2017-08-24T07:40:43.188Z,860.62
2017-08-24T07:41:43.196Z,860.65
2017-08-24T07:42:43.203Z,860.63
2017-08-24T07:43:43.211Z,860.65
2017-08-24T07:44:43.317Z,860.61
2017-08-24T07:45:43.223Z,860.61
2017-08-24T07:46:43.231Z,860.64
2017-08-24T07:47:43.238Z,860.63
2017-08-24T07:48:43.246Z,860.59
2017-08-24T07:49:43.248Z,860.56
2017-08-24T07:50:43.355Z,860.57
2017-08-24T07:51:43.263Z,860.60
2017-08-24T07:52:43.267Z,860.58
2017-08-24T07:53:43.270Z,860.62
2017-08-24T07:54:43.278Z,860.65
2017-08-24T07:55:43.290Z,860.57
2017-08-24T07:56:43.389Z,860.54
2017-08-24T07:57:43.291Z,860.51
2017-08-24T07:58:43.296Z,860.52
2017-08-24T07:59:43.299Z,860.56
2017-08-24T08:00:43.303Z,860.47
2017-08-24T08:01:43.307Z,860.51
2017-08-24T08:02:43.412Z,860.53
2017-08-24T08:03:43.315Z,860.52
2017-08-24T08:04:43.321Z,860.51
2017-08-24T08:05:43.322Z,860.51
2017-08-24T08:06:43.330Z,860.52
2017-08-24T08:07:43.330Z,860.50
2017-08-24T08:08:43.433Z,860.50
2017-08-24T08:09:43.335Z,860.56
2017-08-24T08:10:43.338Z,860.52
2017-08-24T08:11:43.444Z,860.51
2017-08-24T08:12:43.349Z,860.52
2017-08-24T08:13:43.349Z,860.50
2017-08-24T08:14:43.452Z,860.53
2017-08-24T08:15:43.359Z,860.52
2017-08-24T08:16:43.355Z,860.52
2017-08-24T08:17:43.358Z,860.53
2017-08-24T08:18:43.360Z,860.50
2017-08-24T08:19:43.363Z,860.49
2017-08-24T08:20:43.467Z,860.51
2017-08-24T08:21:43.467Z,860.49
2017-08-24T08:22:43.368Z,860.49
2017-08-24T08:23:43.373Z,860.51
2017-08-24T08:24:43.371Z,860.43
2017-08-24T08:25:43.373Z,860.42
2017-08-24T08:26:43.409Z,860.44
2017-08-24T08:27:43.476Z,860.46
2017-08-24T08:28:43.379Z,860.43
2017-08-24T08:29:43.379Z,860.44
2017-08-24T08:30:43.485Z,860.44
2017-08-24T08:31:43.382Z,860.44
2017-08-24T08:32:43.384Z,860.43
2017-08-24T08:33:43.485Z,860.42
2017-08-24T08:34:43.387Z,860.40
2017-08-24T08:35:43.389Z,860.44
2017-08-24T08:36:43.392Z,860.41
2017-08-24T08:37:43.394Z,860.42
2017-08-24T08:38:43.393Z,860.42
2017-08-24T08:39:43.497Z,860.43
2017-08-24T08:40:43.396Z,860.44
2017-08-24T08:41:43.399Z,860.41
2017-08-24T08:42:43.398Z,860.43
2017-08-24T08:43:43.401Z,860.41
2017-08-24T08:44:43.435Z,860.41
2017-08-24T08:45:43.501Z,860.39
2017-08-24T08:46:43.403Z,860.39
2017-08-24T08:47:43.404Z,860.41
2017-08-24T08:48:43.412Z,860.38
2017-08-24T08:49:43.405Z,860.33
2017-08-24T08:50:43.405Z,860.37
2017-08-24T08:51:43.509Z,860.33
2017-08-24T08:52:43.510Z,860.36
2017-08-24T08:53:43.408Z,860.37
2017-08-24T08:54:43.409Z,860.34
2017-08-24T08:55:43.411Z,860.34
2017-08-24T08:56:43.412Z,860.35
2017-08-24T08:57:43.514Z,860.35
2017-08-24T08:58:43.515Z,860.34
2017-08-24T08:59:43.415Z,860.35
2017-08-24T09:00:43.415Z,860.29
2017-08-24T09:01:43.415Z,860.32
2017-08-24T09:02:43.420Z,860.30
2017-08-24T09:03:43.520Z,860.30
2017-08-24T09:04:43.422Z,860.33
2017-08-24T09:05:43.418Z,860.28
2017-08-24T09:06:43.418Z,860.32
2017-08-24T09:07:43.419Z,860.31
2017-08-24T09:08:43.422Z,860.29
2017-08-24T09:09:43.522Z,860.28
2017-08-24T09:10:43.424Z,860.25
2017-08-24T09:11:43.423Z,860.28
2017-08-24T09:12:43.425Z,860.29
2017-08-24T09:13:43.424Z,860.30
2017-08-24T09:14:43.425Z,860.26
2017-08-24T09:15:43.525Z,860.26
2017-08-24T09:16:43.427Z,860.26
2017-08-24T09:17:43.430Z,860.23
2017-08-24T09:18:43.429Z,860.26
2017-08-24T09:19:43.427Z,860.22
2017-08-24T09:20:43.431Z,860.26
2017-08-24T09:21:43.529Z,860.23
2017-08-24T09:22:43.431Z,860.23
2017-08-24T09:23:43.438Z,860.28
2017-08-24T09:24:43.432Z,860.25
2017-08-24T09:25:43.434Z,860.25
2017-08-24T09:26:43.434Z,860.25
2017-08-24T09:27:43.537Z,860.27
2017-08-24T09:28:43.436Z,860.25
2017-08-24T09:29:43.438Z,860.27
2017-08-24T09:30:43.437Z,860.26
2017-08-24T09:31:43.441Z,860.28
2017-08-24T09:32:43.441Z,860.31
2017-08-24T09:33:43.543Z,860.32
2017-08-24T09:34:43.445Z,860.30
2017-08-24T09:35:43.443Z,860.30
2017-08-24T09:36:43.445Z,860.30
2017-08-24T09:37:43.447Z,860.32
2017-08-24T09:38:43.449Z,860.29
2017-08-24T09:39:43.548Z,860.33
2017-08-24T09:40:43.448Z,860.32
2017-08-24T09:41:43.449Z,860.27
2017-08-24T09:42:43.450Z,860.27
2017-08-24T09:43:43.454Z,860.27
2017-08-24T09:44:43.456Z,860.28
2017-08-24T09:45:43.554Z,860.25
2017-08-24T09:46:43.455Z,860.26
2017-08-24T09:47:43.457Z,860.22
2017-08-24T09:48:43.456Z,860.22
2017-08-24T09:49:43.458Z,860.22
2017-08-24T09:50:43.459Z,860.22
2017-08-24T09:51:43.563Z,860.17
2017-08-24T09:52:43.464Z,860.17
2017-08-24T09:53:43.463Z,860.18
2017-08-24T09:54:43.463Z,860.18
2017-08-24T09:55:43.467Z,860.18
2017-08-24T09:56:43.466Z,860.12
2017-08-24T09:57:43.566Z,860.14
2017-08-24T09:58:43.468Z,860.08
2017-08-24T09:59:43.468Z,860.15
2017-08-24T10:00:43.472Z,860.10
2017-08-24T10:01:43.473Z,860.13
2017-08-24T10:02:43.474Z,860.13
2017-08-24T10:03:43.575Z,860.13
2017-08-24T10:04:43.474Z,860.13
2017-08-24T10:05:43.479Z,860.11
2017-08-24T10:06:43.477Z,860.12
2017-08-24T10:07:43.479Z,860.12
2017-08-24T10:08:43.481Z,860.05
2017-08-24T10:09:43.584Z,860.06
2017-08-24T10:10:43.485Z,860.06
2017-08-24T10:11:43.484Z,860.07
2017-08-24T10:12:43.489Z,860.08
2017-08-24T10:13:43.497Z,860.05
2017-08-24T10:14:43.498Z,860.05
2017-08-24T10:15:43.592Z,860.06
2017-08-24T10:16:43.493Z,860.09
2017-08-24T10:17:43.498Z,860.02
2017-08-24T10:18:43.498Z,860.04
2017-08-24T10:19:43.498Z,860.03
2017-08-24T10:20:43.502Z,860.01
2017-08-24T10:21:43.601Z,860.01
2017-08-24T10:22:43.505Z,860.00
2017-08-24T10:23:43.507Z,859.99
2017-08-24T10:24:43.508Z,859.97
2017-08-24T10:25:43.508Z,859.98
2017-08-24T10:26:43.508Z,859.96
2017-08-24T10:27:43.614Z,859.99
2017-08-24T10:28:43.513Z,859.96
2017-08-24T10:29:43.521Z,859.92
2017-08-24T10:30:43.517Z,859.95
2017-08-24T10:31:43.550Z,859.92
2017-08-24T10:32:43.521Z,859.88
2017-08-24T10:33:43.624Z,859.90
2017-08-24T10:34:43.521Z,859.86
2017-08-24T10:35:43.523Z,859.84
2017-08-24T10:36:43.525Z,859.84
2017-08-24T10:37:43.525Z,859.80
2017-08-24T10:38:43.528Z,859.82
2017-08-24T10:39:43.832Z,859.80
2017-08-24T10:40:43.534Z,859.74
2017-08-24T10:41:43.533Z,859.74
2017-08-24T10:42:43.535Z,859.75
2017-08-24T10:43:43.536Z,859.72
2017-08-24T10:44:43.541Z,859.69
2017-08-24T10:45:43.642Z,859.72
2017-08-24T10:46:43.541Z,859.72
2017-08-24T10:47:43.544Z,859.70
2017-08-24T10:48:43.546Z,859.69
2017-08-24T10:49:43.546Z,859.68
2017-08-24T10:50:43.548Z,859.66
2017-08-24T10:51:43.652Z,859.69
2017-08-24T10:52:43.558Z,859.67
2017-08-24T10:53:43.554Z,859.67
2017-08-24T10:54:43.561Z,859.66
2017-08-24T10:55:43.560Z,859.68
2017-08-24T10:56:43.560Z,859.67
2017-08-24T10:57:43.661Z,859.66
2017-08-24T10:58:43.563Z,859.62
2017-08-24T10:59:43.567Z,859.66
2017-08-24T11:00:43.569Z,859.70
2017-08-24T11:01:43.571Z,859.67
2017-08-24T11:02:43.571Z,859.68
2017-08-24T11:03:43.826Z,859.68
2017-08-24T11:04:43.576Z,859.69
2017-08-24T11:05:43.579Z,859.71
2017-08-24T11:06:43.581Z,859.67
2017-08-24T11:07:43.584Z,859.63
2017-08-24T11:08:43.585Z,859.59
2017-08-24T11:09:43.688Z,859.59
2017-08-24T11:10:43.595Z,859.58
2017-08-24T11:11:43.594Z,859.57
2017-08-24T11:12:43.631Z,859.59
2017-08-24T11:13:43.598Z,859.54
2017-08-24T11:14:43.599Z,859.52
2017-08-24T11:15:43.702Z,859.50
2017-08-24T11:16:43.608Z,859.54
2017-08-24T11:17:43.609Z,859.53
2017-08-24T11:18:43.612Z,859.55
2017-08-24T11:19:43.615Z,859.52
2017-08-24T11:20:43.616Z,859.54
2017-08-24T11:21:43.718Z,859.54
2017-08-24T11:22:43.621Z,859.58
2017-08-24T11:23:43.640Z,859.60
2017-08-24T11:24:43.629Z,859.60
2017-08-24T11:25:43.629Z,859.61
2017-08-24T11:26:43.634Z,859.60
2017-08-24T11:27:43.737Z,859.62
2017-08-24T11:28:43.642Z,859.59
2017-08-24T11:29:43.640Z,859.58
2017-08-24T11:30:43.646Z,859.55
2017-08-24T11:31:43.688Z,859.59
2017-08-24T11:32:43.651Z,859.53
2017-08-24T11:33:43.754Z,859.51
2017-08-24T11:34:43.656Z,859.47
2017-08-24T11:35:43.659Z,859.45
2017-08-24T11:36:43.661Z,859.43
2017-08-24T11:37:43.665Z,859.42
2017-08-24T11:38:43.668Z,859.43
2017-08-24T11:39:43.969Z,859.40
2017-08-24T11:40:43.672Z,859.40
2017-08-24T11:41:43.673Z,859.38
2017-08-24T11:42:43.679Z,859.42
2017-08-24T11:43:43.681Z,859.41
2017-08-24T11:44:43.682Z,859.41
2017-08-24T11:45:43.801Z,859.40
2017-08-24T11:46:43.686Z,859.44
2017-08-24T11:47:43.689Z,859.41
2017-08-24T11:48:43.696Z,859.41
2017-08-24T11:49:43.695Z,859.40
2017-08-24T11:50:43.697Z,859.39
2017-08-24T11:51:43.799Z,859.39
2017-08-24T11:52:43.702Z,859.39
2017-08-24T11:53:43.701Z,859.35
2017-08-24T11:54:43.704Z,859.27
2017-08-24T11:55:43.709Z,859.33
2017-08-24T11:56:43.715Z,859.32
2017-08-24T11:57:43.813Z,859.28
2017-08-24T11:58:43.715Z,859.29
2017-08-24T11:59:43.724Z,859.31
2017-08-24T12:00:43.720Z,859.31
2017-08-24T12:01:43.722Z,859.33
2017-08-24T12:02:43.732Z,859.29
2017-08-24T12:03:43.828Z,859.24
2017-08-24T12:04:43.758Z,859.29
2017-08-24T12:05:43.732Z,859.27
2017-08-24T12:06:43.734Z,859.26
2017-08-24T12:07:43.737Z,859.23
2017-08-24T12:08:43.740Z,859.17
2017-08-24T12:09:44.043Z,859.22
2017-08-24T12:10:43.748Z,859.23
2017-08-24T12:11:43.749Z,859.23
2017-08-24T12:12:43.750Z,859.17
2017-08-24T12:13:43.754Z,859.21
2017-08-24T12:14:43.758Z,859.20
2017-08-24T12:15:43.858Z,859.21
2017-08-24T12:16:43.760Z,859.19
2017-08-24T12:17:43.763Z,859.19
2017-08-24T12:18:43.765Z,859.27
2017-08-24T12:19:43.768Z,859.25
2017-08-24T12:20:43.771Z,859.25
2017-08-24T12:21:43.873Z,859.16
2017-08-24T12:22:43.776Z,859.17
2017-08-24T12:23:43.779Z,859.18
2017-08-24T12:24:43.784Z,859.17
2017-08-24T12:25:43.784Z,859.18
2017-08-24T12:26:43.786Z,859.20
2017-08-24T12:27:43.892Z,859.18
2017-08-24T12:28:43.794Z,859.22
2017-08-24T12:29:43.794Z,859.20
2017-08-24T12:30:43.798Z,859.20
2017-08-24T12:31:43.803Z,859.19
2017-08-24T12:32:43.805Z,859.21
2017-08-24T12:33:43.907Z,859.20
2017-08-24T12:34:43.809Z,859.15
2017-08-24T12:35:43.813Z,859.15
2017-08-24T12:36:43.818Z,859.15
2017-08-24T12:37:43.820Z,859.20
2017-08-24T12:38:43.821Z,859.20
2017-08-24T12:39:43.925Z,859.16
2017-08-24T12:40:43.830Z,859.19
2017-08-24T12:41:43.833Z,859.18
2017-08-24T12:42:43.837Z,859.20
2017-08-24T12:43:43.844Z,859.16
2017-08-24T12:44:43.842Z,859.14
2017-08-24T12:45:43.946Z,859.17
2017-08-24T12:46:43.850Z,859.15
2017-08-24T12:47:43.853Z,859.18
2017-08-24T12:48:43.857Z,859.02
2017-08-24T12:49:43.858Z,859.18
2017-08-24T12:50:43.864Z,859.13
2017-08-24T12:51:43.964Z,859.17
2017-08-24T12:52:43.867Z,859.18
2017-08-24T12:53:43.872Z,859.16
2017-08-24T12:54:43.876Z,859.18
2017-08-24T12:55:43.879Z,859.22
2017-08-24T12:56:43.880Z,859.22
2017-08-24T12:57:43.984Z,859.20
2017-08-24T12:58:43.888Z,859.21
2017-08-24T12:59:43.892Z,859.24
2017-08-24T13:00:43.895Z,859.23
2017-08-24T13:01:43.900Z,859.21
2017-08-24T13:02:43.902Z,859.23
2017-08-24T13:03:44.007Z,859.26
2017-08-24T13:04:43.909Z,859.23
2017-08-24T13:05:43.909Z,859.24
2017-08-24T13:06:43.915Z,859.19
2017-08-24T13:07:43.920Z,859.19
2017-08-24T13:08:43.921Z,859.19
2017-08-24T13:09:44.025Z,859.21
2017-08-24T13:10:43.929Z,859.23
2017-08-24T13:11:43.933Z,859.24
2017-08-24T13:12:43.935Z,859.23
2017-08-24T13:13:43.938Z,859.22
2017-08-24T13:14:43.940Z,859.22
2017-08-24T13:15:44.058Z,859.25
2017-08-24T13:16:43.949Z,859.31
2017-08-24T13:17:43.952Z,859.30
2017-08-24T13:18:43.954Z,859.27
2017-08-24T13:19:43.957Z,859.26
2017-08-24T13:20:43.962Z,859.27
2017-08-24T13:21:44.063Z,859.24
2017-08-24T13:22:43.968Z,859.16
2017-08-24T13:23:43.970Z,859.19
2017-08-24T13:24:43.975Z,859.15
2017-08-24T13:25:43.978Z,859.14
2017-08-24T13:26:43.985Z,859.22
2017-08-24T13:27:44.084Z,859.25
2017-08-24T13:28:43.988Z,859.24
2017-08-24T13:29:43.989Z,859.29
2017-08-24T13:30:43.991Z,859.20
2017-08-24T13:31:43.995Z,859.17
2017-08-24T13:32:44.000Z,859.25
2017-08-24T13:33:44.249Z,859.23
2017-08-24T13:34:44.002Z,859.22
2017-08-24T13:35:44.007Z,859.18
2017-08-24T13:36:44.018Z,859.19
2017-08-24T13:37:44.012Z,859.23
2017-08-24T13:38:44.015Z,859.22
2017-08-24T13:39:44.274Z,859.22
2017-08-24T13:40:44.021Z,859.16
2017-08-24T13:41:44.025Z,859.07
2017-08-24T13:42:44.027Z,859.16
2017-08-24T13:43:44.029Z,859.15
2017-08-24T13:44:44.035Z,859.15
2017-08-24T13:45:44.137Z,859.13
2017-08-24T13:46:44.040Z,859.11
2017-08-24T13:47:44.042Z,859.06
2017-08-24T13:48:44.046Z,859.09
2017-08-24T13:49:44.048Z,859.11
2017-08-24T13:50:44.049Z,859.02
2017-08-24T13:51:44.156Z,858.98
2017-08-24T13:52:44.058Z,858.97
2017-08-24T13:53:44.062Z,858.95
2017-08-24T13:54:44.063Z,859.01
2017-08-24T13:55:44.066Z,858.89
2017-08-24T13:56:44.069Z,858.96
2017-08-24T13:57:44.173Z,858.96
2017-08-24T13:58:44.075Z,858.96
2017-08-24T13:59:44.079Z,858.93
2017-08-24T14:00:44.081Z,858.99
2017-08-24T14:01:44.083Z,858.99
2017-08-24T14:02:44.089Z,859.00
2017-08-24T14:03:44.190Z,858.92
2017-08-24T14:04:44.092Z,858.92
2017-08-24T14:05:44.095Z,858.94
2017-08-24T14:06:44.097Z,859.02
2017-08-24T14:07:44.103Z,859.05
2017-08-24T14:08:44.105Z,859.06
2017-08-24T14:09:44.207Z,859.07
2017-08-24T14:10:44.109Z,859.05
2017-08-24T14:11:44.113Z,859.08